Time;durP1;ratioP1;P1;durP2;ratioP2;P2;SDS_P1;SDS_P2;PMS_P1;PMS_P2;Temp;Humidity;BMP_temperature;BMP_pressure;BME280_temperature;BME280_humidity;BME280_pressure;Samples;Min_cycle;Max_cycle;Signal;HPM_P1;HPM_P2
2020/12/21 00:01:48;;;;;;;1.77;1.60;;;9.60;72.60;;;;;;5008309;28;20045;-83
2020/12/21 00:04:14;;;;;;;1.75;1.33;;;9.60;72.60;;;;;;5009298;28;20025;-83
2020/12/21 00:06:39;;;;;;;2.88;1.70;;;9.70;72.60;;;;;;5008538;28;20053;-81
2020/12/21 00:09:06;;;;;;;2.28;1.60;;;9.70;72.60;;;;;;5009504;28;20038;-82
2020/12/21 00:11:33;;;;;;;4.03;2.10;;;9.70;72.50;;;;;;5012942;28;20559;-81
2020/12/21 00:13:59;;;;;;;2.10;1.45;;;9.70;72.60;;;;;;5013138;28;20107;-82
2020/12/21 00:16:24;;;;;;;2.33;1.63;;;9.80;72.70;;;;;;5013163;28;20485;-82
2020/12/21 00:18:50;;;;;;;1.90;1.48;;;9.90;72.80;;;;;;5013228;28;20030;-82
2020/12/21 00:21:15;;;;;;;3.65;1.40;;;9.80;72.90;;;;;;5009343;28;20053;-83
2020/12/21 00:23:41;;;;;;;1.60;1.30;;;9.90;73.00;;;;;;5009605;28;20038;-82
2020/12/21 00:26:10;;;;;;;2.33;1.50;;;9.90;73.00;;;;;;5013494;28;20061;-82
2020/12/21 00:28:35;;;;;;;2.03;1.40;;;9.90;73.10;;;;;;5013560;28;20523;-81
2020/12/21 00:31:01;;;;;;;2.85;1.67;;;9.90;73.10;;;;;;5012974;28;20026;-82
2020/12/21 00:33:31;;;;;;;1.60;1.48;;;10.00;73.10;;;;;;5009760;28;20032;-81
2020/12/21 00:35:57;;;;;;;2.60;1.67;;;10.00;73.20;;;;;;5008692;28;20037;-82
2020/12/21 00:38:22;;;;;;;2.05;1.17;;;10.10;73.10;;;;;;5011985;28;20026;-80
2020/12/21 00:40:48;;;;;;;2.58;1.55;;;10.10;73.10;;;;;;5013459;28;20038;-81
2020/12/21 00:43:13;;;;;;;1.98;1.00;;;10.20;73.10;;;;;;5014051;28;20451;-82
2020/12/21 00:45:39;;;;;;;2.13;1.33;;;10.20;73.00;;;;;;5008740;28;20045;-81
2020/12/21 00:48:05;;;;;;;3.90;2.30;;;10.40;73.10;;;;;;5010070;28;20374;-82
2020/12/21 00:50:31;;;;;;;2.03;1.20;;;10.30;73.00;;;;;;5009729;28;20030;-81
2020/12/21 00:52:56;;;;;;;2.13;1.25;;;10.30;73.00;;;;;;5012166;28;20510;-81
2020/12/21 00:55:22;;;;;;;2.45;0.98;;;10.30;73.00;;;;;;5013799;28;20045;-83
2020/12/21 00:57:47;;;;;;;1.63;0.85;;;10.30;72.90;;;;;;5011089;28;20026;-81
2020/12/21 01:00:13;;;;;;;1.48;1.00;;;10.40;73.00;;;;;;5009839;28;20038;-82
2020/12/21 01:02:39;;;;;;;2.15;0.90;;;10.40;72.90;;;;;;5010844;28;20048;-81
2020/12/21 01:05:04;;;;;;;4.82;1.77;;;10.50;72.90;;;;;;5002120;28;20034;-81
2020/12/21 01:07:30;;;;;;;1.27;1.10;;;10.50;72.90;;;;;;5011579;28;20068;-82
2020/12/21 01:09:55;;;;;;;1.35;0.80;;;10.50;72.90;;;;;;5014953;28;20026;-82
2020/12/21 01:12:21;;;;;;;1.77;0.80;;;10.50;72.90;;;;;;5017195;28;20489;-80
2020/12/21 01:14:46;;;;;;;1.13;0.75;;;10.70;73.00;;;;;;5012317;28;20034;-82
2020/12/21 01:17:12;;;;;;;1.20;0.63;;;10.60;72.90;;;;;;5018141;28;20026;-82
2020/12/21 01:19:37;;;;;;;2.85;1.20;;;10.60;72.90;;;;;;5013532;28;20042;-81
2020/12/21 01:22:04;;;;;;;1.15;0.65;;;10.60;72.90;;;;;;5015726;28;20444;-82
2020/12/21 01:24:29;;;;;;;1.65;0.95;;;10.70;72.80;;;;;;5013924;28;20038;-81
2020/12/21 01:26:55;;;;;;;1.33;0.88;;;10.80;72.80;;;;;;5016089;28;20030;-81
2020/12/21 01:29:20;;;;;;;1.40;0.70;;;10.70;72.60;;;;;;5010193;28;20034;-82
2020/12/21 01:31:46;;;;;;;1.70;0.88;;;10.70;72.50;;;;;;5014507;28;20049;-81
2020/12/21 01:34:13;;;;;;;2.58;0.93;;;10.70;72.60;;;;;;5013156;28;20518;-82
2020/12/21 01:36:38;;;;;;;1.33;0.63;;;10.70;72.60;;;;;;5013831;28;20026;-81
2020/12/21 01:39:04;;;;;;;2.50;0.63;;;10.70;72.50;;;;;;5014757;28;20037;-82
2020/12/21 01:41:29;;;;;;;1.58;1.00;;;10.70;72.50;;;;;;5013383;28;20084;-82
2020/12/21 01:43:55;;;;;;;1.25;0.80;;;10.70;72.40;;;;;;5015361;28;20674;-82
2020/12/21 01:46:22;;;;;;;1.85;0.60;;;10.70;72.20;;;;;;5012419;28;20496;-80
2020/12/21 01:48:49;;;;;;;1.13;0.77;;;10.70;72.10;;;;;;5014246;28;20045;-82
2020/12/21 01:51:24;;;;;;;2.40;0.85;;;10.70;72.00;;;;;;5011860;28;20042;-82
2020/12/21 01:53:51;;;;;;;1.10;0.80;;;10.60;71.90;;;;;;5022635;28;20026;-82
2020/12/21 01:56:17;;;;;;;0.80;0.50;;;10.60;71.80;;;;;;5011388;28;20022;-82
2020/12/21 01:58:44;;;;;;;3.10;1.05;;;10.60;71.90;;;;;;5021141;28;20044;-81
2020/12/21 02:01:12;;;;;;;1.10;0.90;;;10.60;72.10;;;;;;5020619;28;20030;-82
2020/12/21 02:03:39;;;;;;;1.25;0.80;;;10.60;72.30;;;;;;5019365;28;20033;-82
2020/12/21 02:06:04;;;;;;;1.85;0.73;;;10.60;72.40;;;;;;5013587;28;20725;-82
2020/12/21 02:08:30;;;;;;;3.25;1.48;;;10.50;72.50;;;;;;5020022;28;20034;-82
2020/12/21 02:10:55;;;;;;;1.55;0.80;;;10.50;72.50;;;;;;5020107;28;20034;-82
2020/12/21 02:13:21;;;;;;;0.90;0.65;;;10.50;72.40;;;;;;5017123;28;20030;-81
2020/12/21 02:15:46;;;;;;;3.80;1.25;;;10.60;72.40;;;;;;5018732;28;20083;-81
2020/12/21 02:18:12;;;;;;;1.75;0.98;;;10.50;72.40;;;;;;5020437;28;20048;-81
2020/12/21 02:20:38;;;;;;;1.63;0.70;;;10.60;72.40;;;;;;5014914;28;20049;-81
2020/12/21 02:23:04;;;;;;;2.35;0.93;;;10.50;72.30;;;;;;5018073;28;20037;-81
2020/12/21 02:25:29;;;;;;;1.40;0.70;;;10.50;72.20;;;;;;5018040;28;20077;-81
2020/12/21 02:27:55;;;;;;;1.48;0.60;;;10.50;72.10;;;;;;5014039;28;20033;-81
2020/12/21 02:30:20;;;;;;;3.30;1.45;;;10.50;72.00;;;;;;4996733;28;20038;-81
2020/12/21 02:32:46;;;;;;;1.95;0.93;;;10.50;71.90;;;;;;5009693;28;20049;-81
2020/12/21 02:35:12;;;;;;;2.40;0.90;;;10.50;71.90;;;;;;5012276;28;20048;-83
2020/12/21 02:37:37;;;;;;;2.60;0.95;;;10.40;71.90;;;;;;5016362;28;20053;-82
2020/12/21 02:40:05;;;;;;;2.65;1.13;;;10.40;72.00;;;;;;5014403;28;20038;-81
2020/12/21 02:42:31;;;;;;;1.30;0.80;;;10.40;72.10;;;;;;5013181;28;20114;-81
2020/12/21 02:44:56;;;;;;;1.40;0.63;;;10.40;72.20;;;;;;5014557;28;20049;-81
2020/12/21 02:47:22;;;;;;;1.20;0.60;;;10.30;72.20;;;;;;5014398;28;20041;-81
2020/12/21 02:49:47;;;;;;;1.23;0.70;;;10.30;72.20;;;;;;5020218;28;20159;-81
2020/12/21 02:52:14;;;;;;;2.75;0.70;;;10.30;72.10;;;;;;5014453;28;20053;-80
2020/12/21 02:54:40;;;;;;;2.88;0.77;;;10.30;72.00;;;;;;5014796;28;20086;-81
2020/12/21 02:57:06;;;;;;;1.17;0.60;;;10.30;72.00;;;;;;5012911;28;20038;-82
2020/12/21 02:59:31;;;;;;;0.90;0.68;;;10.20;71.90;;;;;;5012507;28;20034;-80
2020/12/21 03:01:57;;;;;;;1.15;0.60;;;10.20;71.90;;;;;;5002804;28;20038;-81
2020/12/21 03:04:22;;;;;;;1.63;0.73;;;10.20;71.80;;;;;;5010911;28;20088;-81
2020/12/21 03:06:48;;;;;;;1.02;0.73;;;10.20;71.80;;;;;;5014244;28;20109;-81
2020/12/21 03:09:13;;;;;;;2.30;0.75;;;10.20;71.70;;;;;;5015131;28;20030;-81
2020/12/21 03:11:38;;;;;;;1.77;0.90;;;10.10;71.70;;;;;;5014701;28;20106;-82
2020/12/21 03:14:04;;;;;;;1.35;0.68;;;10.10;71.70;;;;;;5006928;28;20060;-81
2020/12/21 03:16:29;;;;;;;2.03;0.68;;;10.00;71.70;;;;;;5012396;28;20061;-81
2020/12/21 03:18:55;;;;;;;0.63;0.60;;;10.00;71.80;;;;;;5012713;28;20807;-80
2020/12/21 03:21:20;;;;;;;1.10;0.60;;;10.00;71.90;;;;;;5010317;28;20026;-82
2020/12/21 03:23:46;;;;;;;0.88;0.68;;;9.90;71.90;;;;;;5012423;28;20427;-80
2020/12/21 03:26:11;;;;;;;1.17;0.70;;;9.90;72.10;;;;;;5012548;28;20045;-81
2020/12/21 03:28:37;;;;;;;2.28;0.75;;;9.90;72.10;;;;;;5012901;28;20046;-81
2020/12/21 03:31:03;;;;;;;2.10;1.35;;;9.90;72.20;;;;;;5009218;28;20034;-81
2020/12/21 03:33:28;;;;;;;1.25;0.68;;;9.90;72.20;;;;;;5012683;28;20489;-80
2020/12/21 03:35:54;;;;;;;0.95;0.73;;;9.90;72.20;;;;;;5010095;28;20504;-81
2020/12/21 03:38:19;;;;;;;2.67;0.90;;;9.90;72.20;;;;;;5012602;28;20030;-82
2020/12/21 03:40:45;;;;;;;1.80;0.85;;;9.80;72.10;;;;;;5012540;28;20042;-82
2020/12/21 03:43:10;;;;;;;1.98;0.80;;;9.80;72.00;;;;;;5010213;28;20125;-81
2020/12/21 03:45:36;;;;;;;0.95;0.85;;;9.80;71.90;;;;;;5007886;28;20038;-80
2020/12/21 03:48:01;;;;;;;1.67;0.68;;;9.80;71.90;;;;;;5014217;28;20022;-81
2020/12/21 03:50:27;;;;;;;1.65;0.80;;;9.80;71.80;;;;;;4989891;28;20061;-80
2020/12/21 03:52:52;;;;;;;1.63;0.70;;;9.80;71.70;;;;;;5014219;28;20061;-81
2020/12/21 03:55:18;;;;;;;1.02;0.70;;;9.70;71.70;;;;;;5006792;28;20060;-82
2020/12/21 03:57:43;;;;;;;5.03;1.08;;;9.80;71.70;;;;;;5011140;28;20433;-81
2020/12/21 04:00:09;;;;;;;1.42;0.77;;;9.70;71.70;;;;;;5010409;28;20043;-81
2020/12/21 04:02:35;;;;;;;2.00;1.00;;;9.70;71.70;;;;;;5012128;28;20045;-81
2020/12/21 04:05:06;;;;;;;1.23;0.70;;;9.60;71.60;;;;;;5009658;28;20497;-81
2020/12/21 04:07:33;;;;;;;1.73;0.90;;;9.60;71.60;;;;;;5015763;28;20129;-81
2020/12/21 04:09:59;;;;;;;1.50;0.68;;;9.50;71.50;;;;;;5016235;28;20596;-81
2020/12/21 04:12:24;;;;;;;1.77;0.95;;;9.60;71.50;;;;;;5016136;28;20564;-80
2020/12/21 04:14:50;;;;;;;1.35;0.60;;;9.70;71.70;;;;;;5012142;28;20129;-82
2020/12/21 04:17:15;;;;;;;1.92;0.70;;;9.50;71.60;;;;;;5011838;28;20026;-81
2020/12/21 04:19:41;;;;;;;2.22;0.88;;;9.40;71.60;;;;;;5007197;28;20117;-81
2020/12/21 04:22:07;;;;;;;1.98;1.00;;;9.40;71.70;;;;;;5016018;28;20080;-81
2020/12/21 04:24:32;;;;;;;2.55;0.70;;;9.40;71.80;;;;;;5010554;28;20060;-81
2020/12/21 04:26:58;;;;;;;1.50;0.90;;;9.30;71.90;;;;;;5015169;28;20492;-81
2020/12/21 04:29:23;;;;;;;1.00;0.63;;;9.30;72.00;;;;;;5011440;28;20041;-81
2020/12/21 04:31:53;;;;;;;2.40;0.95;;;9.30;72.20;;;;;;4997177;28;20054;-82
2020/12/21 04:34:18;;;;;;;2.60;0.85;;;9.40;72.30;;;;;;5012222;28;20036;-82
2020/12/21 04:36:44;;;;;;;1.15;0.82;;;9.40;72.30;;;;;;5014839;28;20038;-80
2020/12/21 04:39:09;;;;;;;2.63;1.15;;;9.30;72.20;;;;;;5016080;28;20026;-81
2020/12/21 04:41:35;;;;;;;2.47;1.27;;;9.40;72.20;;;;;;5009887;28;20033;-80
2020/12/21 04:44:01;;;;;;;2.42;1.25;;;9.30;72.20;;;;;;5015751;28;20132;-81
2020/12/21 04:46:27;;;;;;;2.53;1.15;;;9.30;72.20;;;;;;5019869;28;20042;-81
2020/12/21 04:48:58;;;;;;;1.73;1.00;;;9.30;72.30;;;;;;5019749;28;20030;-81
2020/12/21 04:51:33;;;;;;;3.45;2.17;;;9.30;72.30;;;;;;5015765;28;20492;-81
2020/12/21 04:53:58;;;;;;;5.28;2.05;;;9.30;72.40;;;;;;5018530;28;20058;-81
2020/12/21 04:56:24;;;;;;;1.50;1.10;;;9.30;72.30;;;;;;5014172;28;20077;-81
2020/12/21 04:58:50;;;;;;;1.00;0.88;;;9.30;72.30;;;;;;5015659;28;20033;-82
2020/12/21 05:01:15;;;;;;;2.35;0.90;;;9.30;72.30;;;;;;5020100;28;20029;-81
2020/12/21 05:03:40;;;;;;;1.17;0.82;;;9.30;72.30;;;;;;5019292;28;20049;-81
2020/12/21 05:06:07;;;;;;;2.75;1.83;;;9.30;72.40;;;;;;5016323;28;20041;-81
2020/12/21 05:08:33;;;;;;;2.42;1.10;;;9.40;72.50;;;;;;5024132;28;20041;-81
2020/12/21 05:11:04;;;;;;;2.83;1.48;;;9.40;72.50;;;;;;5029560;28;20038;-82
2020/12/21 05:13:32;;;;;;;3.25;1.10;;;9.30;72.60;;;;;;5018389;28;20161;-81
2020/12/21 05:15:59;;;;;;;2.38;1.13;;;9.40;72.50;;;;;;5020432;28;20022;-80
2020/12/21 05:18:29;;;;;;;2.30;0.93;;;9.30;72.40;;;;;;5020296;28;20030;-82
2020/12/21 05:21:03;;;;;;;2.20;1.40;;;9.50;72.60;;;;;;5012118;28;20041;-82
2020/12/21 05:23:29;;;;;;;1.90;1.00;;;9.30;72.30;;;;;;5019217;28;20030;-81
2020/12/21 05:26:05;;;;;;;2.55;1.33;;;9.40;72.30;;;;;;5020434;28;20033;-82
2020/12/21 05:28:33;;;;;;;8.02;1.85;;;9.40;72.40;;;;;;5018173;28;20063;-81
2020/12/21 05:31:07;;;;;;;2.50;1.33;;;9.40;72.30;;;;;;5020021;28;20030;-82
2020/12/21 05:33:33;;;;;;;2.75;1.60;;;9.40;72.30;;;;;;5019359;28;20553;-81
2020/12/21 05:36:07;;;;;;;2.50;1.20;;;9.40;72.20;;;;;;5012966;28;20060;-81
2020/12/21 05:38:33;;;;;;;1.52;0.85;;;9.40;72.30;;;;;;5015304;28;20018;-81
2020/12/21 05:41:17;;;;;;;4.72;2.15;;;9.50;72.20;;;;;;5014559;28;20984;-81
2020/12/21 05:43:45;;;;;;;3.17;1.50;;;9.30;72.20;;;;;;5009324;28;20043;-80
2020/12/21 05:46:16;;;;;;;3.25;1.38;;;9.30;72.00;;;;;;5016166;28;20037;-81
2020/12/21 05:48:46;;;;;;;3.20;1.35;;;9.30;72.00;;;;;;5012606;28;20030;-81
2020/12/21 05:51:38;;;;;;;1.92;1.17;;;9.30;72.10;;;;;;5012036;28;20030;-81
2020/12/21 05:54:05;;;;;;;1.65;0.93;;;9.30;72.10;;;;;;5015467;28;20038;-82
2020/12/21 05:56:32;;;;;;;2.22;1.15;;;9.30;72.00;;;;;;5010598;28;20034;-80
2020/12/21 05:58:59;;;;;;;2.40;1.10;;;9.20;71.90;;;;;;5015427;28;20041;-80
2020/12/21 06:01:25;;;;;;;2.72;1.80;;;9.20;72.00;;;;;;5017648;28;20062;-81
2020/12/21 06:03:59;;;;;;;2.00;1.08;;;9.10;72.00;;;;;;5012220;28;20041;-80
2020/12/21 06:06:26;;;;;;;3.53;1.58;;;9.20;72.10;;;;;;5004565;28;20034;-81
2020/12/21 06:08:56;;;;;;;2.30;1.27;;;9.20;72.00;;;;;;5006281;28;20064;-80
2020/12/21 06:11:31;;;;;;;3.15;1.40;;;9.10;71.90;;;;;;5007224;28;20132;-80
2020/12/21 06:14:03;;;;;;;1.80;1.38;;;9.10;71.90;;;;;;5005685;28;20045;-79
2020/12/21 06:16:35;;;;;;;1.58;1.30;;;9.10;71.90;;;;;;4981808;28;20033;-80
2020/12/21 06:19:09;;;;;;;2.10;0.98;;;9.00;71.80;;;;;;5006347;28;20053;-81
2020/12/21 06:21:42;;;;;;;2.03;1.20;;;9.00;71.80;;;;;;5008178;28;20121;-81
2020/12/21 06:24:18;;;;;;;2.92;1.52;;;9.00;71.90;;;;;;5002855;28;20489;-80
2020/12/21 06:26:43;;;;;;;1.75;1.42;;;8.90;71.90;;;;;;4999097;28;20054;-81
2020/12/21 06:29:13;;;;;;;1.52;1.10;;;8.90;71.80;;;;;;5002553;28;20034;-81
2020/12/21 06:31:41;;;;;;;2.55;1.88;;;9.00;71.90;;;;;;5016544;28;20050;-81
2020/12/21 06:34:09;;;;;;;2.78;1.40;;;8.90;72.50;;;;;;5004147;28;20489;-81
2020/12/21 06:36:35;;;;;;;2.92;1.17;;;8.90;71.90;;;;;;5013712;28;20046;-82
2020/12/21 06:39:02;;;;;;;3.17;1.52;;;8.80;71.80;;;;;;5014877;28;20093;-82
2020/12/21 06:41:28;;;;;;;2.88;1.50;;;8.80;71.80;;;;;;5016761;28;20034;-82
2020/12/21 06:43:59;;;;;;;3.00;1.50;;;8.80;71.80;;;;;;5013980;28;20052;-82
2020/12/21 06:46:26;;;;;;;1.45;1.08;;;8.80;71.80;;;;;;5015608;28;20170;-81
2020/12/21 06:49:12;;;;;;;2.05;1.40;;;8.70;71.80;;;;;;5013750;28;20093;-81
2020/12/21 06:51:45;;;;;;;2.90;1.20;;;8.70;71.90;;;;;;5013802;28;20064;-82
2020/12/21 06:54:12;;;;;;;2.05;1.05;;;8.70;71.90;;;;;;5009382;28;20034;-82
2020/12/21 06:56:39;;;;;;;2.10;1.20;;;8.70;71.90;;;;;;5007029;28;20033;-78
2020/12/21 06:59:10;;;;;;;2.30;1.27;;;8.70;72.20;;;;;;5005739;28;20030;-80
2020/12/21 07:01:37;;;;;;;1.60;1.25;;;8.70;72.40;;;;;;5000235;28;20056;-79
2020/12/21 07:04:02;;;;;;;1.60;1.20;;;8.70;72.30;;;;;;5005343;28;20050;-81
2020/12/21 07:06:28;;;;;;;3.10;1.30;;;8.60;72.30;;;;;;5001990;28;20390;-79
2020/12/21 07:08:58;;;;;;;1.73;1.13;;;8.70;72.20;;;;;;5005459;28;20125;-80
2020/12/21 07:11:24;;;;;;;1.65;1.45;;;8.70;72.20;;;;;;4999172;28;20061;-79
2020/12/21 07:13:51;;;;;;;3.03;1.50;;;8.70;72.10;;;;;;5003512;28;20504;-80
2020/12/21 07:16:17;;;;;;;1.52;1.15;;;8.60;72.00;;;;;;5007661;28;20049;-79
2020/12/21 07:18:44;;;;;;;2.25;1.48;;;8.70;72.00;;;;;;5009502;28;20030;-79
2020/12/21 07:21:11;;;;;;;2.45;1.63;;;8.60;72.00;;;;;;5001915;28;20497;-81
2020/12/21 07:23:38;;;;;;;1.85;0.90;;;8.60;71.90;;;;;;5007830;28;20405;-79
2020/12/21 07:26:04;;;;;;;2.67;1.83;;;8.60;71.90;;;;;;5009132;28;20061;-79
2020/12/21 07:28:30;;;;;;;2.58;1.63;;;8.60;71.90;;;;;;5006884;28;20058;-79
2020/12/21 07:31:13;;;;;;;2.13;1.50;;;8.50;71.80;;;;;;5003501;28;20511;-79
2020/12/21 07:33:53;;;;;;;2.95;1.67;;;8.50;71.90;;;;;;4999047;28;20068;-79
2020/12/21 07:36:29;;;;;;;1.70;1.30;;;8.50;71.90;;;;;;5004772;28;20030;-79
2020/12/21 07:39:04;;;;;;;2.13;1.23;;;8.50;71.90;;;;;;5003206;28;20030;-78
2020/12/21 07:41:32;;;;;;;2.10;1.38;;;8.40;71.90;;;;;;5009246;28;20030;-79
2020/12/21 07:44:04;;;;;;;1.83;1.15;;;8.50;71.90;;;;;;5007887;28;20034;-80
2020/12/21 07:46:38;;;;;;;1.55;1.20;;;8.40;71.90;;;;;;5010021;28;20426;-79
2020/12/21 07:49:04;;;;;;;3.58;1.95;;;8.40;72.00;;;;;;5008896;28;20032;-80
2020/12/21 07:51:30;;;;;;;1.77;1.48;;;8.40;71.90;;;;;;5006344;28;20042;-79
2020/12/21 07:54:00;;;;;;;5.43;2.50;;;8.40;72.00;;;;;;5008802;28;20030;-79
2020/12/21 07:56:25;;;;;;;1.88;1.50;;;8.40;72.00;;;;;;5003009;28;20035;-79
2020/12/21 07:58:52;;;;;;;1.92;1.48;;;8.30;72.00;;;;;;5009141;28;20026;-77
2020/12/21 08:01:22;;;;;;;2.42;1.70;;;8.30;72.10;;;;;;5004015;28;20034;-79
2020/12/21 08:03:50;;;;;;;3.33;2.00;;;8.40;72.30;;;;;;5008889;28;20068;-79
2020/12/21 08:06:18;;;;;;;2.28;1.17;;;8.40;72.40;;;;;;5006412;28;20112;-79
2020/12/21 08:08:44;;;;;;;2.45;1.15;;;8.30;72.40;;;;;;5008724;28;20048;-79
2020/12/21 08:11:15;;;;;;;2.00;1.58;;;8.30;72.40;;;;;;5009559;28;20397;-80
2020/12/21 08:13:51;;;;;;;2.83;1.70;;;8.40;72.60;;;;;;5008600;28;20030;-78
2020/12/21 08:16:23;;;;;;;1.92;1.38;;;8.40;72.70;;;;;;5004398;28;20022;-79
2020/12/21 08:18:50;;;;;;;1.77;1.50;;;8.40;72.50;;;;;;5014236;28;20026;-79
2020/12/21 08:21:16;;;;;;;2.47;1.42;;;8.40;72.50;;;;;;5011687;28;20036;-79
2020/12/21 08:23:49;;;;;;;4.85;1.80;;;8.40;72.50;;;;;;5008780;28;20034;-79
2020/12/21 08:26:15;;;;;;;2.30;1.42;;;8.40;72.50;;;;;;5009271;28;20076;-79
2020/12/21 08:28:41;;;;;;;2.10;1.48;;;8.40;72.50;;;;;;5014616;28;20030;-78
2020/12/21 08:31:12;;;;;;;2.00;1.38;;;8.50;72.60;;;;;;5014207;28;20045;-80
2020/12/21 08:33:41;;;;;;;2.15;1.33;;;8.50;72.60;;;;;;5022220;28;20073;-79
2020/12/21 08:36:21;;;;;;;2.28;1.30;;;8.50;72.50;;;;;;5012763;28;20030;-76
2020/12/21 08:38:48;;;;;;;1.97;1.53;;;8.50;72.60;;;;;;5008382;28;20172;-74
2020/12/21 08:41:14;;;;;;;2.15;1.52;;;8.50;72.60;;;;;;5014860;28;20816;-75
2020/12/21 08:43:40;;;;;;;5.00;2.88;;;8.50;72.60;;;;;;5015123;28;20116;-75
2020/12/21 08:46:07;;;;;;;2.65;1.52;;;8.60;72.70;;;;;;5013760;28;20034;-75
2020/12/21 08:48:35;;;;;;;2.95;1.77;;;8.60;72.70;;;;;;5014670;28;20046;-74
2020/12/21 08:51:00;;;;;;;2.00;1.20;;;8.60;72.70;;;;;;5011406;28;20038;-75
2020/12/21 08:53:26;;;;;;;3.33;1.48;;;8.70;72.70;;;;;;5014390;28;20045;-75
2020/12/21 08:55:51;;;;;;;1.95;1.17;;;8.60;72.70;;;;;;5013693;28;20680;-75
2020/12/21 08:58:17;;;;;;;2.25;1.30;;;8.70;72.80;;;;;;5014914;28;20041;-75
2020/12/21 09:00:42;;;;;;;1.63;1.52;;;8.70;72.80;;;;;;5014619;28;20088;-75
2020/12/21 09:03:07;;;;;;;2.55;1.58;;;8.80;73.40;;;;;;5015399;28;20125;-75
2020/12/21 09:05:36;;;;;;;2.38;1.60;;;8.80;72.90;;;;;;5011321;28;20088;-74
2020/12/21 09:08:02;;;;;;;2.72;1.67;;;8.80;72.90;;;;;;5015352;28;20038;-75
2020/12/21 09:10:27;;;;;;;3.17;1.48;;;8.70;72.80;;;;;;5014970;28;20386;-75
2020/12/21 09:12:53;;;;;;;2.85;1.25;;;8.80;72.80;;;;;;5014884;28;20076;-75
2020/12/21 09:15:18;;;;;;;1.88;1.30;;;8.80;72.80;;;;;;5013107;28;20033;-76
2020/12/21 09:17:43;;;;;;;1.65;1.23;;;8.80;72.80;;;;;;5014757;28;20042;-76
2020/12/21 09:22:37;;;;;;;2.53;1.40;;;8.90;72.90;;;;;;4987189;28;20065;-75
2020/12/21 09:25:03;;;;;;;1.88;1.05;;;9.00;73.00;;;;;;4994902;28;20026;-75
2020/12/21 09:27:29;;;;;;;1.95;1.42;;;8.90;73.10;;;;;;4995163;28;20053;-74
2020/12/21 09:29:54;;;;;;;2.33;1.38;;;9.00;73.20;;;;;;4990803;28;20501;-75
2020/12/21 09:32:20;;;;;;;2.13;1.48;;;9.10;73.30;;;;;;4989356;28;20134;-71
2020/12/21 09:34:45;;;;;;;2.38;1.15;;;9.10;73.40;;;;;;4989834;28;20042;-74
2020/12/21 09:37:13;;;;;;;2.47;1.10;;;9.20;73.60;;;;;;4992185;28;20026;-77
2020/12/21 09:39:39;;;;;;;5.38;1.23;;;9.10;74.20;;;;;;4991420;28;20068;-75
2020/12/21 09:42:05;;;;;;;1.60;1.00;;;9.30;73.80;;;;;;4985132;28;20489;-74
2020/12/21 09:44:30;;;;;;;1.60;0.90;;;9.20;73.80;;;;;;4990210;28;20034;-76
2020/12/21 09:46:56;;;;;;;1.95;1.00;;;9.40;73.90;;;;;;4991227;28;20409;-74
2020/12/21 09:49:22;;;;;;;1.52;1.10;;;9.50;74.00;;;;;;4989127;28;20118;-73
2020/12/21 09:51:51;;;;;;;2.05;0.80;;;9.50;73.90;;;;;;4980163;28;20093;-73
2020/12/21 09:54:17;;;;;;;1.90;1.08;;;9.60;74.00;;;;;;4983410;28;20038;-73
2020/12/21 09:56:49;;;;;;;1.20;0.93;;;9.60;73.80;;;;;;4984594;28;20113;-74
2020/12/21 09:59:15;;;;;;;2.15;1.20;;;9.70;73.90;;;;;;4980819;28;20401;-74
2020/12/21 10:01:40;;;;;;;2.13;1.23;;;9.80;73.80;;;;;;4981706;28;20082;-74
2020/12/21 10:04:06;;;;;;;2.55;0.90;;;9.80;73.80;;;;;;4975711;28;20038;-74
2020/12/21 10:06:31;;;;;;;2.78;1.00;;;9.90;73.80;;;;;;4979543;28;20059;-73
2020/12/21 10:08:57;;;;;;;1.92;0.82;;;9.90;73.80;;;;;;4977398;28;20037;-75
2020/12/21 10:11:22;;;;;;;2.45;0.85;;;10.00;73.80;;;;;;4976315;28;20041;-74
2020/12/21 10:13:48;;;;;;;1.30;0.82;;;10.00;73.80;;;;;;4978067;28;20029;-74
2020/12/21 10:16:14;;;;;;;1.15;0.82;;;10.10;73.80;;;;;;4980890;28;20041;-75
2020/12/21 10:18:39;;;;;;;3.28;1.25;;;10.20;73.80;;;;;;4978140;28;20118;-75
2020/12/21 10:21:06;;;;;;;1.73;0.98;;;10.20;73.80;;;;;;4977561;28;20436;-75
2020/12/21 10:23:31;;;;;;;1.08;0.75;;;10.30;73.90;;;;;;4975974;28;20039;-75
2020/12/21 10:26:00;;;;;;;1.65;0.80;;;10.30;73.90;;;;;;4975947;28;20037;-75
2020/12/21 10:28:26;;;;;;;1.05;0.70;;;10.40;74.00;;;;;;4977890;28;20029;-75
2020/12/21 10:30:51;;;;;;;1.10;0.73;;;10.50;74.00;;;;;;4976966;28;20031;-75
2020/12/21 10:33:17;;;;;;;2.05;0.77;;;10.50;74.00;;;;;;4973243;28;20039;-75
2020/12/21 10:35:42;;;;;;;2.85;0.80;;;10.50;74.00;;;;;;4978285;28;20034;-75
2020/12/21 10:38:08;;;;;;;2.35;0.90;;;10.60;74.00;;;;;;4974489;28;20382;-75
2020/12/21 10:40:33;;;;;;;1.45;0.77;;;10.80;74.00;;;;;;4975610;28;20142;-76
2020/12/21 10:42:59;;;;;;;1.48;0.73;;;10.70;73.90;;;;;;4980064;28;20085;-75
2020/12/21 10:45:24;;;;;;;0.93;0.60;;;10.80;73.80;;;;;;4975342;28;20758;-75
2020/12/21 10:47:50;;;;;;;1.15;0.80;;;10.80;73.70;;;;;;4979566;28;20560;-75
2020/12/21 10:50:15;;;;;;;2.45;0.70;;;10.80;73.70;;;;;;4977509;28;20065;-75
2020/12/21 10:52:41;;;;;;;1.00;0.65;;;10.90;73.80;;;;;;4982096;28;20038;-75
2020/12/21 10:55:07;;;;;;;1.27;0.60;;;11.00;73.80;;;;;;4974795;28;20023;-75
2020/12/21 10:57:33;;;;;;;0.93;0.57;;;11.10;73.80;;;;;;4976643;28;20038;-76
2020/12/21 10:59:59;;;;;;;1.90;0.73;;;11.10;73.90;;;;;;4978001;28;20030;-75
2020/12/21 11:02:24;;;;;;;2.67;0.50;;;11.10;73.80;;;;;;4974268;28;20077;-75
2020/12/21 11:04:50;;;;;;;1.23;0.60;;;11.10;73.70;;;;;;4981173;28;20452;-76
2020/12/21 11:07:15;;;;;;;1.10;0.60;;;11.20;73.80;;;;;;4986801;28;20033;-76
2020/12/21 11:09:41;;;;;;;1.13;0.63;;;11.30;73.80;;;;;;4976921;28;20050;-75
2020/12/21 11:12:06;;;;;;;1.95;0.50;;;11.40;73.80;;;;;;4984288;28;20060;-76
2020/12/21 11:14:32;;;;;;;1.02;0.57;;;11.40;73.80;;;;;;4984192;28;20379;-75
2020/12/21 11:16:57;;;;;;;1.38;0.50;;;11.40;73.80;;;;;;4980749;28;20532;-74
2020/12/21 11:19:26;;;;;;;1.88;1.25;;;11.40;73.80;;;;;;4981509;28;20077;-76
2020/12/21 11:21:52;;;;;;;1.67;0.60;;;11.60;74.30;;;;;;4980489;28;20140;-75
2020/12/21 11:24:17;;;;;;;1.50;0.60;;;11.60;73.70;;;;;;4980595;28;20549;-75
2020/12/21 11:26:43;;;;;;;1.23;0.70;;;11.70;73.70;;;;;;4981319;28;20109;-76
2020/12/21 11:29:09;;;;;;;1.05;0.80;;;11.70;73.50;;;;;;4979833;28;20043;-77
2020/12/21 11:31:36;;;;;;;1.42;0.70;;;11.80;73.30;;;;;;4980365;28;20034;-76
2020/12/21 11:34:03;;;;;;;0.95;0.65;;;11.70;73.00;;;;;;4982314;28;20069;-76
2020/12/21 11:36:28;;;;;;;1.00;0.60;;;11.80;72.90;;;;;;4982259;28;20034;-75
2020/12/21 11:38:54;;;;;;;1.75;0.50;;;11.90;72.80;;;;;;4984315;28;20034;-76
2020/12/21 11:41:19;;;;;;;1.63;0.90;;;11.90;72.60;;;;;;4981309;28;20068;-74
2020/12/21 11:43:45;;;;;;;0.60;0.40;;;11.90;72.30;;;;;;4984591;28;20085;-76
2020/12/21 11:46:12;;;;;;;1.95;1.08;;;11.90;72.00;;;;;;4981056;28;20492;-76
2020/12/21 11:48:38;;;;;;;1.00;0.70;;;11.90;71.80;;;;;;4983155;28;20045;-74
2020/12/21 11:51:03;;;;;;;1.05;0.50;;;11.80;71.60;;;;;;4979326;28;20034;-75
2020/12/21 11:53:29;;;;;;;1.70;0.73;;;11.80;71.60;;;;;;4981859;28;20402;-76
2020/12/21 11:55:54;;;;;;;0.68;0.68;;;11.80;71.60;;;;;;4980880;28;20695;-76
2020/12/21 11:58:20;;;;;;;1.55;0.57;;;11.80;71.70;;;;;;4980862;28;20659;-77
2020/12/21 12:00:45;;;;;;;0.73;0.52;;;11.70;71.70;;;;;;4982891;28;20097;-76
2020/12/21 12:03:11;;;;;;;2.10;0.77;;;11.80;71.80;;;;;;4981131;28;20041;-77
2020/12/21 12:05:36;;;;;;;1.30;0.90;;;11.70;71.80;;;;;;4980842;28;20034;-77
2020/12/21 12:08:02;;;;;;;2.47;0.60;;;11.80;72.00;;;;;;4977397;28;20049;-74
2020/12/21 12:10:27;;;;;;;1.23;0.60;;;11.80;72.00;;;;;;4981506;28;20036;-76
2020/12/21 12:12:53;;;;;;;1.25;0.60;;;11.70;72.00;;;;;;4981608;28;20038;-75
2020/12/21 12:15:18;;;;;;;1.42;0.70;;;11.70;72.00;;;;;;4980410;28;20061;-76
2020/12/21 12:17:43;;;;;;;1.20;1.10;;;11.70;72.00;;;;;;4983513;28;20042;-75
2020/12/21 12:20:10;;;;;;;1.23;0.70;;;11.80;72.10;;;;;;4978392;28;20038;-75
2020/12/21 12:22:36;;;;;;;0.70;0.60;;;11.70;71.90;;;;;;4981258;28;20494;-75
2020/12/21 12:25:01;;;;;;;1.77;0.70;;;11.70;71.90;;;;;;4988742;28;20034;-75
2020/12/21 12:27:27;;;;;;;0.93;0.55;;;11.70;71.90;;;;;;4979908;28;20724;-75
2020/12/21 12:29:53;;;;;;;1.45;0.93;;;11.70;71.80;;;;;;4979897;28;20053;-76
2020/12/21 12:32:19;;;;;;;2.50;0.73;;;11.70;71.80;;;;;;4984199;28;20117;-74
2020/12/21 12:34:44;;;;;;;1.98;0.50;;;11.70;71.70;;;;;;4983871;28;20125;-75
2020/12/21 12:37:10;;;;;;;0.70;0.50;;;11.70;71.70;;;;;;4984350;28;20027;-76
2020/12/21 12:39:35;;;;;;;1.23;0.60;;;11.80;71.70;;;;;;4982466;28;20038;-76
2020/12/21 12:42:01;;;;;;;1.00;0.60;;;11.80;71.50;;;;;;4982548;28;20508;-75
2020/12/21 12:44:26;;;;;;;1.20;0.73;;;11.70;71.40;;;;;;4983109;28;20042;-74
2020/12/21 12:46:52;;;;;;;1.42;0.57;;;11.70;71.40;;;;;;4983047;28;20543;-76
2020/12/21 12:49:17;;;;;;;1.25;0.60;;;11.70;71.40;;;;;;4979913;28;20042;-75
2020/12/21 12:51:43;;;;;;;0.65;0.50;;;11.70;71.40;;;;;;4980729;28;20097;-76
2020/12/21 12:54:08;;;;;;;1.38;0.50;;;11.70;71.30;;;;;;4980102;28;20628;-74